createdAt,value
2023-03-26T00:01:47.090Z,97657.56
2023-03-26T00:04:14.593Z,97654.63
2023-03-26T00:06:42.009Z,97653.53
2023-03-26T00:09:13.682Z,97659.38
2023-03-26T00:11:42.315Z,97652.63
2023-03-26T00:14:14.019Z,97665.09
2023-03-26T00:16:44.454Z,97653.94
2023-03-26T00:19:12.758Z,97650.84
2023-03-26T00:21:40.165Z,97645.16
2023-03-26T00:24:15.256Z,97646.34
2023-03-26T00:26:43.088Z,97638.41
2023-03-26T00:29:12.028Z,97642.47
2023-03-26T00:31:40.129Z,97650.84
2023-03-26T00:34:07.440Z,97645.19
2023-03-26T00:36:36.257Z,97646.59
2023-03-26T00:39:06.355Z,97632.84
2023-03-26T00:41:37.288Z,97639.13
2023-03-26T00:44:04.906Z,97636.63
2023-03-26T00:46:33.087Z,97645.41
2023-03-26T00:49:02.057Z,97629.97
2023-03-26T00:51:29.766Z,97637.81
2023-03-26T00:53:57.935Z,97633.06
2023-03-26T00:56:25.754Z,97630.19
2023-03-26T00:58:53.128Z,97632.84
2023-03-26T01:01:28.736Z,97627.84
2023-03-26T01:06:36.067Z,97624.53
2023-03-26T01:09:16.042Z,97623.59
2023-03-26T01:11:43.903Z,97615.94
2023-03-26T01:14:15.501Z,97606.94
2023-03-26T01:16:47.081Z,97610.97
2023-03-26T01:19:23.376Z,97606.00
2023-03-26T01:21:50.846Z,97613.00
2023-03-26T01:24:18.141Z,97606.34
2023-03-26T01:27:11.159Z,97602.06
2023-03-26T01:29:56.616Z,97605.69
2023-03-26T01:32:51.915Z,97609.50
2023-03-26T01:35:34.806Z,97604.72
2023-03-26T01:38:10.976Z,97604.22
2023-03-26T01:41:00.397Z,97601.63
2023-03-26T01:43:42.313Z,97594.38
2023-03-26T01:46:11.807Z,97593.56
2023-03-26T01:48:45.065Z,97594.63
2023-03-26T01:51:14.835Z,97598.28
2023-03-26T01:53:45.641Z,97595.63
2023-03-26T01:56:21.778Z,97600.25
2023-03-26T01:59:09.642Z,97601.69
2023-03-26T02:01:44.894Z,97606.78
2023-03-26T02:04:26.736Z,97596.47
2023-03-26T02:07:02.158Z,97595.41
2023-03-26T02:09:32.466Z,97593.53
2023-03-26T02:12:00.711Z,97587.59
2023-03-26T02:14:30.583Z,97583.06
2023-03-26T02:16:58.882Z,97585.53
2023-03-26T02:19:26.280Z,97590.97
2023-03-26T02:21:53.682Z,97583.38
2023-03-26T02:24:20.793Z,97586.69
2023-03-26T02:26:48.312Z,97583.75
2023-03-26T02:29:20.766Z,97591.69
2023-03-26T02:31:48.882Z,97595.59
2023-03-26T02:34:16.373Z,97598.22
2023-03-26T02:36:44.724Z,97586.38
2023-03-26T02:39:14.409Z,97584.59
2023-03-26T02:41:41.747Z,97584.59
2023-03-26T02:44:08.689Z,97578.81
2023-03-26T02:46:36.449Z,97583.22
2023-03-26T02:49:03.369Z,97581.19
2023-03-26T02:51:34.957Z,97586.75
2023-03-26T02:54:02.343Z,97581.91
2023-03-26T02:56:30.152Z,97583.34
2023-03-26T02:58:57.124Z,97581.09
2023-03-26T03:01:25.929Z,97582.03
2023-03-26T03:03:52.830Z,97582.53
2023-03-26T03:06:20.137Z,97573.13
2023-03-26T03:08:47.439Z,97576.59
2023-03-26T03:11:17.180Z,97573.72
2023-03-26T03:13:45.019Z,97569.72
2023-03-26T03:16:12.756Z,97573.88
2023-03-26T03:18:40.209Z,97570.53
2023-03-26T03:21:07.680Z,97567.56
2023-03-26T03:23:36.080Z,97562.22
2023-03-26T03:26:03.334Z,97565.91
2023-03-26T03:28:30.932Z,97577.78
2023-03-26T03:30:58.323Z,97582.03
2023-03-26T03:33:25.425Z,97562.13
2023-03-26T03:35:52.990Z,97561.88
2023-03-26T03:38:21.596Z,97565.44
2023-03-26T03:40:48.839Z,97571.84
2023-03-26T03:43:16.907Z,97567.91
2023-03-26T03:45:44.289Z,97563.41
2023-03-26T03:48:11.365Z,97563.06
2023-03-26T03:50:38.574Z,97568.03
2023-03-26T03:53:05.876Z,97569.47
2023-03-26T03:55:33.102Z,97567.91
2023-03-26T03:58:00.211Z,97572.78
2023-03-26T04:00:27.799Z,97569.69
2023-03-26T04:02:54.819Z,97574.19
2023-03-26T04:05:22.384Z,97573.50
2023-03-26T04:07:50.399Z,97577.03
2023-03-26T04:10:17.720Z,97562.81
2023-03-26T04:12:44.741Z,97566.50
2023-03-26T04:15:12.299Z,97562.81
2023-03-26T04:17:42.814Z,97565.66
2023-03-26T04:20:14.968Z,97568.63
2023-03-26T04:22:43.408Z,97574.81
2023-03-26T04:25:12.712Z,97573.03
2023-03-26T04:27:44.350Z,97568.75
2023-03-26T04:30:15.748Z,97561.97
2023-03-26T04:32:45.065Z,97563.03
2023-03-26T04:35:14.815Z,97561.16
2023-03-26T04:37:43.358Z,97566.13
2023-03-26T04:40:16.929Z,97560.78
2023-03-26T04:42:46.900Z,97563.53
2023-03-26T04:45:16.047Z,97565.63
2023-03-26T04:47:46.740Z,97558.50
2023-03-26T04:50:14.696Z,97570.53
2023-03-26T04:52:43.939Z,97564.94
2023-03-26T04:55:25.446Z,97565.03
2023-03-26T04:57:56.873Z,97573.34
2023-03-26T05:00:25.513Z,97570.63
2023-03-26T05:02:56.289Z,97568.47
2023-03-26T05:05:25.268Z,97565.91
2023-03-26T05:07:52.202Z,97568.22
2023-03-26T05:10:20.692Z,97569.06
2023-03-26T05:12:47.901Z,97573.97
2023-03-26T05:15:15.630Z,97560.63
2023-03-26T05:17:43.157Z,97554.34
2023-03-26T05:20:21.080Z,97564.19
2023-03-26T05:22:49.386Z,97562.88
2023-03-26T05:25:17.775Z,97562.97
2023-03-26T05:27:45.107Z,97570.31
2023-03-26T05:30:18.126Z,97571.25
2023-03-26T05:32:47.457Z,97572.69
2023-03-26T05:35:17.276Z,97567.22
2023-03-26T05:37:46.455Z,97562.78
2023-03-26T05:40:17.093Z,97561.41
2023-03-26T05:42:44.897Z,97560.19
2023-03-26T05:45:13.586Z,97559.69
2023-03-26T05:47:41.902Z,97559.38
2023-03-26T05:50:09.901Z,97560.59
2023-03-26T05:52:37.491Z,97562.38
2023-03-26T05:55:05.260Z,97567.16
2023-03-26T05:57:32.851Z,97569.97
2023-03-26T06:00:00.504Z,97576.44
2023-03-26T06:02:29.536Z,97577.84
2023-03-26T06:04:56.973Z,97574.06
2023-03-26T06:07:27.147Z,97587.78
2023-03-26T06:09:54.768Z,97589.38
2023-03-26T06:12:22.280Z,97583.91
2023-03-26T06:14:49.606Z,97590.38
2023-03-26T06:17:18.101Z,97588.34
2023-03-26T06:19:45.313Z,97580.94
2023-03-26T06:22:12.554Z,97586.31
2023-03-26T06:24:39.951Z,97594.78
2023-03-26T06:27:07.985Z,97592.16
2023-03-26T06:29:35.394Z,97594.09
2023-03-26T06:32:16.243Z,97589.81
2023-03-26T06:34:46.481Z,97601.31
2023-03-26T06:37:13.849Z,97592.13
2023-03-26T06:39:41.307Z,97599.47
2023-03-26T06:42:08.850Z,97598.34
2023-03-26T06:44:36.327Z,97601.00
2023-03-26T06:47:03.581Z,97602.72
2023-03-26T06:49:31.219Z,97596.31
2023-03-26T06:51:58.340Z,97597.66
2023-03-26T06:54:25.572Z,97593.44
2023-03-26T06:56:52.939Z,97596.78
2023-03-26T06:59:20.498Z,97595.94
2023-03-26T07:01:47.436Z,97592.06
2023-03-26T07:04:15.098Z,97594.44
2023-03-26T07:06:42.086Z,97595.81
2023-03-26T07:09:09.450Z,97591.25
2023-03-26T07:11:36.771Z,97597.38
2023-03-26T07:14:04.238Z,97588.75
2023-03-26T07:16:31.378Z,97581.44
2023-03-26T07:18:58.814Z,97577.38
2023-03-26T07:21:26.059Z,97582.25
2023-03-26T07:23:55.098Z,97582.53
2023-03-26T07:26:29.844Z,97579.22
2023-03-26T07:29:07.070Z,97571.88
2023-03-26T07:31:42.268Z,97583.63
2023-03-26T07:34:40.714Z,97576.75
2023-03-26T07:37:38.414Z,97576.44
2023-03-26T07:40:35.230Z,97586.38
2023-03-26T07:43:26.996Z,97583.63
2023-03-26T07:45:55.093Z,97585.41
2023-03-26T07:48:27.510Z,97587.41
2023-03-26T07:50:55.500Z,97590.66
2023-03-26T07:53:23.489Z,97583.06
2023-03-26T07:56:01.171Z,97582.97
2023-03-26T07:58:40.526Z,97573.53
2023-03-26T08:01:34.676Z,97572.97
2023-03-26T08:04:38.537Z,97580.25
2023-03-26T08:07:11.791Z,97570.91
2023-03-26T08:10:01.460Z,97577.78
2023-03-26T08:12:38.126Z,97585.19
2023-03-26T08:15:18.591Z,97562.38
2023-03-26T08:17:53.923Z,97580.03
2023-03-26T08:20:58.383Z,97577.78
2023-03-26T08:23:50.478Z,97582.97
2023-03-26T08:26:44.298Z,97564.38
2023-03-26T08:29:24.851Z,97563.97
2023-03-26T08:31:52.213Z,97561.81
2023-03-26T08:34:19.558Z,97559.44
2023-03-26T08:36:46.973Z,97560.69
2023-03-26T08:39:14.558Z,97568.16
2023-03-26T08:41:44.697Z,97563.28
2023-03-26T08:44:30.271Z,97560.59
2023-03-26T08:47:23.671Z,97549.81
2023-03-26T08:50:21.920Z,97554.91
2023-03-26T08:53:08.052Z,97560.47
2023-03-26T08:55:52.697Z,97557.00
2023-03-26T08:58:28.843Z,97553.69
2023-03-26T09:01:08.670Z,97559.31
2023-03-26T09:04:03.701Z,97547.22
2023-03-26T09:07:00.187Z,97560.91
2023-03-26T09:09:49.103Z,97553.88
2023-03-26T09:12:46.667Z,97553.38
2023-03-26T09:15:59.203Z,97544.00
2023-03-26T09:18:38.996Z,97531.50
2023-03-26T09:21:38.019Z,97542.56
2023-03-26T09:24:27.853Z,97546.00
2023-03-26T09:30:19.845Z,97543.44
2023-03-26T09:33:17.331Z,97543.44
2023-03-26T09:35:53.130Z,97542.38
2023-03-26T09:38:45.836Z,97524.91
2023-03-26T09:41:29.934Z,97523.69
2023-03-26T09:44:21.289Z,97529.06
2023-03-26T09:46:51.765Z,97519.41
2023-03-26T09:49:46.281Z,97515.63
2023-03-26T09:52:16.985Z,97523.63
2023-03-26T09:54:44.744Z,97520.00
2023-03-26T09:57:36.645Z,97511.84
2023-03-26T10:00:28.144Z,97509.00
2023-03-26T10:03:19.216Z,97505.16
2023-03-26T10:06:34.065Z,97502.44
2023-03-26T10:09:21.297Z,97498.97
2023-03-26T10:12:12.899Z,97498.56
2023-03-26T10:14:53.823Z,97498.53
2023-03-26T10:17:34.306Z,97493.56
2023-03-26T10:20:09.750Z,97495.59
2023-03-26T10:23:04.538Z,97491.97
2023-03-26T10:25:47.381Z,97492.59
2023-03-26T10:29:00.382Z,97493.03
2023-03-26T10:32:03.178Z,97486.69
2023-03-26T10:34:50.349Z,97486.06
2023-03-26T10:37:46.268Z,97480.34
2023-03-26T10:40:23.884Z,97478.91
2023-03-26T10:43:22.040Z,97482.16
2023-03-26T10:46:05.826Z,97475.78
2023-03-26T10:49:04.565Z,97488.00
2023-03-26T10:51:50.517Z,97477.38
2023-03-26T10:54:30.690Z,97482.66
2023-03-26T10:56:58.591Z,97475.06
2023-03-26T10:59:27.808Z,97475.22
2023-03-26T11:02:29.080Z,97471.16
2023-03-26T11:05:41.490Z,97465.50
2023-03-26T11:08:15.797Z,97467.91
2023-03-26T11:10:43.168Z,97457.09
2023-03-26T11:13:40.168Z,97467.19
2023-03-26T11:16:25.999Z,97456.91
2023-03-26T11:19:05.529Z,97444.00
2023-03-26T11:21:55.173Z,97454.63
2023-03-26T11:24:48.558Z,97448.16
2023-03-26T11:27:28.063Z,97449.22
2023-03-26T11:30:26.223Z,97451.75
2023-03-26T11:32:57.914Z,97446.44
2023-03-26T11:35:39.347Z,97446.22
2023-03-26T11:38:29.057Z,97443.66
2023-03-26T11:40:58.158Z,97442.44
2023-03-26T11:43:36.746Z,97444.53
2023-03-26T11:46:07.967Z,97438.25
2023-03-26T11:48:43.163Z,97435.25
2023-03-26T11:51:19.112Z,97436.72
2023-03-26T11:53:46.835Z,97429.56
2023-03-26T11:56:17.308Z,97431.91
2023-03-26T11:58:54.068Z,97431.50
2023-03-26T12:01:37.608Z,97419.50
2023-03-26T12:04:13.400Z,97419.19
2023-03-26T12:06:57.714Z,97409.09
2023-03-26T12:09:25.259Z,97422.59
2023-03-26T12:11:59.626Z,97414.78
2023-03-26T12:14:29.987Z,97410.75
2023-03-26T12:17:09.436Z,97410.13
2023-03-26T12:19:45.219Z,97401.81
2023-03-26T12:22:36.462Z,97402.28
2023-03-26T12:25:18.752Z,97400.63
2023-03-26T12:28:02.602Z,97401.59
2023-03-26T12:30:31.626Z,97397.16
2023-03-26T12:33:03.853Z,97388.94
2023-03-26T12:35:34.995Z,97389.16
2023-03-26T12:38:14.114Z,97396.56
2023-03-26T12:40:43.292Z,97385.69
2023-03-26T12:44:54.391Z,97380.44
2023-03-26T12:47:58.861Z,97372.19
2023-03-26T12:49:22.141Z,97372.47
2023-03-26T12:52:01.460Z,97361.28
2023-03-26T12:54:42.594Z,97360.66
2023-03-26T12:57:23.017Z,97368.78
2023-03-26T13:00:21.574Z,97350.47
2023-03-26T13:03:14.477Z,97355.38
2023-03-26T13:05:53.398Z,97350.84
2023-03-26T13:08:47.439Z,97348.66
2023-03-26T13:11:37.327Z,97347.50
2023-03-26T13:14:26.798Z,97339.50
2023-03-26T13:17:24.446Z,97340.56
2023-03-26T13:20:13.427Z,97336.16
2023-03-26T13:22:58.049Z,97319.66
2023-03-26T13:25:39.864Z,97319.97
2023-03-26T13:28:55.346Z,97318.81
2023-03-26T13:31:28.376Z,97307.53
2023-03-26T13:34:08.390Z,97307.16
2023-03-26T13:36:38.578Z,97306.78
2023-03-26T13:39:17.082Z,97310.06
2023-03-26T13:42:03.830Z,97307.25
2023-03-26T13:44:37.260Z,97302.63
2023-03-26T13:47:13.003Z,97300.97
2023-03-26T13:49:54.611Z,97299.69
2023-03-26T13:52:26.059Z,97301.97
2023-03-26T13:55:22.480Z,97296.88
2023-03-26T13:57:55.618Z,97291.53
2023-03-26T14:00:56.303Z,97293.41
2023-03-26T14:03:34.174Z,97295.22
2023-03-26T14:06:07.110Z,97301.66
2023-03-26T14:08:40.233Z,97298.69
2023-03-26T14:11:14.827Z,97295.03
2023-03-26T14:14:05.793Z,97304.13
2023-03-26T14:16:41.668Z,97290.38
2023-03-26T14:19:27.918Z,97295.38
2023-03-26T14:22:18.611Z,97292.78
2023-03-26T14:25:01.214Z,97298.19
2023-03-26T14:27:28.435Z,97293.41
2023-03-26T14:29:58.656Z,97294.09
2023-03-26T14:32:37.486Z,97283.69
2023-03-26T14:35:13.723Z,97279.00
2023-03-26T14:38:02.712Z,97277.88
2023-03-26T14:41:01.868Z,97277.88
2023-03-26T14:43:37.935Z,97276.09
2023-03-26T14:46:17.143Z,97272.69
2023-03-26T14:49:03.086Z,97273.66
2023-03-26T14:51:41.413Z,97277.28
2023-03-26T14:54:12.479Z,97270.19
2023-03-26T14:57:12.551Z,97270.84
2023-03-26T14:59:47.887Z,97264.41
2023-03-26T15:02:38.600Z,97259.72
2023-03-26T15:05:36.962Z,97260.00
2023-03-26T15:08:34.368Z,97252.69
2023-03-26T15:11:32.570Z,97253.50
2023-03-26T15:14:21.105Z,97247.88
2023-03-26T15:16:57.642Z,97247.59
2023-03-26T15:20:02.757Z,97252.72
2023-03-26T15:22:48.070Z,97244.63
2023-03-26T15:25:41.067Z,97248.94
2023-03-26T15:28:20.138Z,97238.72
2023-03-26T15:31:10.020Z,97241.69
2023-03-26T15:34:06.409Z,97245.16
2023-03-26T15:36:56.873Z,97240.06
2023-03-26T15:39:58.601Z,97243.34
2023-03-26T15:42:40.045Z,97240.22
2023-03-26T15:45:08.018Z,97246.00
2023-03-26T15:47:48.309Z,97229.53
2023-03-26T15:50:29.689Z,97231.84
2023-03-26T15:53:18.707Z,97226.19
2023-03-26T15:56:24.106Z,97222.88
2023-03-26T15:59:06.941Z,97218.25
2023-03-26T16:01:49.300Z,97223.09
2023-03-26T16:04:26.570Z,97216.16
2023-03-26T16:07:05.827Z,97210.00
2023-03-26T16:09:39.701Z,97211.22
2023-03-26T16:12:13.300Z,97211.06
2023-03-26T16:14:47.103Z,97213.41
2023-03-26T16:17:20.820Z,97212.78
2023-03-26T16:19:49.749Z,97210.06
2023-03-26T16:22:43.634Z,97211.19
2023-03-26T16:25:27.853Z,97214.88
2023-03-26T16:28:28.695Z,97216.53
2023-03-26T16:31:37.490Z,97217.78
2023-03-26T16:34:09.368Z,97210.13
2023-03-26T16:36:39.137Z,97205.81
2023-03-26T16:39:06.345Z,97207.75
2023-03-26T16:41:40.230Z,97206.38
2023-03-26T16:44:14.056Z,97200.66
2023-03-26T16:47:00.369Z,97206.22
2023-03-26T16:49:36.600Z,97207.91
2023-03-26T16:52:23.907Z,97208.66
2023-03-26T16:55:42.491Z,97209.06
2023-03-26T16:58:29.231Z,97209.31
2023-03-26T17:01:48.403Z,97213.69
2023-03-26T17:04:25.483Z,97208.50
2023-03-26T17:07:14.036Z,97206.13
2023-03-26T17:09:55.795Z,97208.69
2023-03-26T17:12:48.234Z,97207.50
2023-03-26T17:15:36.897Z,97214.28
2023-03-26T17:18:31.714Z,97214.06
2023-03-26T17:21:04.160Z,97206.91
2023-03-26T17:23:40.671Z,97208.81
2023-03-26T17:26:23.877Z,97209.91
2023-03-26T17:29:03.482Z,97218.56
2023-03-26T17:31:36.934Z,97212.63
2023-03-26T17:34:49.284Z,97215.59
2023-03-26T17:37:23.155Z,97217.72
2023-03-26T17:39:53.243Z,97208.88
2023-03-26T17:42:27.874Z,97212.44
2023-03-26T17:44:56.284Z,97215.75
2023-03-26T17:47:25.939Z,97208.53
2023-03-26T17:50:08.454Z,97218.59
2023-03-26T17:52:42.004Z,97224.09
2023-03-26T17:55:13.399Z,97229.19
2023-03-26T17:57:44.058Z,97219.75
2023-03-26T18:00:24.046Z,97210.91
2023-03-26T18:02:58.472Z,97224.63
2023-03-26T18:05:29.361Z,97222.47
2023-03-26T18:08:15.394Z,97229.28
2023-03-26T18:11:16.954Z,97227.16
2023-03-26T18:14:14.409Z,97225.28
2023-03-26T18:16:58.020Z,97230.03
2023-03-26T18:19:26.780Z,97228.25
2023-03-26T18:21:57.063Z,97227.72
2023-03-26T18:24:28.915Z,97227.34
2023-03-26T18:27:03.842Z,97235.72
2023-03-26T18:29:34.213Z,97226.34
2023-03-26T18:32:04.094Z,97235.78
2023-03-26T18:34:33.602Z,97246.81
2023-03-26T18:37:11.097Z,97244.94
2023-03-26T18:39:39.064Z,97252.09
2023-03-26T18:42:06.805Z,97250.72
2023-03-26T18:44:37.142Z,97245.09
2023-03-26T18:47:06.603Z,97242.34
2023-03-26T18:49:34.477Z,97241.09
2023-03-26T18:52:01.578Z,97244.69
2023-03-26T18:54:34.520Z,97242.91
2023-03-26T18:57:15.211Z,97252.72
2023-03-26T18:59:45.693Z,97248.59
2023-03-26T19:02:14.698Z,97234.53
2023-03-26T19:04:46.670Z,97239.75
2023-03-26T19:07:17.542Z,97238.13
2023-03-26T19:09:45.673Z,97237.53
2023-03-26T19:12:20.616Z,97240.31
2023-03-26T19:15:03.947Z,97233.84
2023-03-26T19:17:34.657Z,97231.78
2023-03-26T19:20:03.774Z,97235.09
2023-03-26T19:22:31.528Z,97232.31
2023-03-26T19:25:01.477Z,97230.94
2023-03-26T19:27:29.255Z,97230.13
2023-03-26T19:29:57.194Z,97220.75
2023-03-26T19:32:33.035Z,97217.19
2023-03-26T19:35:02.422Z,97216.06
2023-03-26T19:37:31.090Z,97213.72
2023-03-26T19:40:15.624Z,97212.91
2023-03-26T19:45:34.706Z,97202.19
2023-03-26T19:48:14.338Z,97208.78
2023-03-26T19:50:46.497Z,97199.97
2023-03-26T19:51:18.135Z,97217.19
2023-03-26T19:53:24.422Z,97203.13
2023-03-26T19:56:00.399Z,97195.41
2023-03-26T19:58:28.956Z,97200.63
2023-03-26T20:00:57.362Z,97195.28
2023-03-26T20:03:31.539Z,97198.16
2023-03-26T20:05:59.178Z,97192.38
2023-03-26T20:08:29.381Z,97192.41
2023-03-26T20:10:58.346Z,97182.75
2023-03-26T20:13:26.383Z,97187.16
2023-03-26T20:16:06.060Z,97181.38
2023-03-26T20:18:35.050Z,97179.16
2023-03-26T20:21:05.638Z,97173.94
2023-03-26T20:23:32.872Z,97165.53
2023-03-26T20:26:00.865Z,97151.94
2023-03-26T20:28:28.391Z,97144.38
2023-03-26T20:30:57.185Z,97136.78
2023-03-26T20:33:26.973Z,97134.56
2023-03-26T20:35:55.892Z,97127.69
2023-03-26T20:38:36.617Z,97129.88
2023-03-26T20:41:10.777Z,97130.03
2023-03-26T20:43:37.891Z,97120.00
2023-03-26T20:46:05.814Z,97122.03
2023-03-26T20:48:33.057Z,97109.81
2023-03-26T20:51:01.958Z,97111.19
2023-03-26T20:53:30.773Z,97106.22
2023-03-26T20:55:58.390Z,97105.97
2023-03-26T20:58:30.986Z,97104.59
2023-03-26T21:01:01.270Z,97104.88
2023-03-26T21:03:28.567Z,97095.78
2023-03-26T21:06:00.368Z,97093.03
2023-03-26T21:08:34.406Z,97100.34
2023-03-26T21:11:03.031Z,97085.00
2023-03-26T21:13:53.096Z,97095.75
2023-03-26T21:16:21.307Z,97084.25
2023-03-26T21:18:49.478Z,97067.31
2023-03-26T21:21:41.392Z,97080.75
2023-03-26T21:24:18.168Z,97088.13
2023-03-26T21:27:08.771Z,97085.38
2023-03-26T21:29:36.417Z,97094.56
2023-03-26T21:32:05.806Z,97096.16
2023-03-26T21:34:34.170Z,97093.25
2023-03-26T21:37:02.219Z,97097.13
2023-03-26T21:39:29.626Z,97096.31
2023-03-26T21:42:04.704Z,97090.66
2023-03-26T21:44:34.164Z,97074.66
2023-03-26T21:47:02.341Z,97078.47
2023-03-26T21:49:29.918Z,97076.38
2023-03-26T21:51:58.069Z,97064.19
2023-03-26T21:54:26.816Z,97057.41
2023-03-26T21:57:03.937Z,97059.88
2023-03-26T21:59:58.975Z,97056.84
2023-03-26T22:02:45.330Z,97060.38
2023-03-26T22:05:21.832Z,97057.38
2023-03-26T22:07:49.259Z,97058.72
2023-03-26T22:10:16.761Z,97060.91
2023-03-26T22:12:44.082Z,97063.50
2023-03-26T22:15:14.402Z,97070.31
2023-03-26T22:17:42.456Z,97058.03
2023-03-26T22:20:14.773Z,97051.34
2023-03-26T22:22:48.796Z,97062.69
2023-03-26T22:25:17.991Z,97052.03
2023-03-26T22:27:46.685Z,97044.97
2023-03-26T22:30:14.362Z,97042.09
2023-03-26T22:32:43.663Z,97035.94
2023-03-26T22:35:10.958Z,97024.69
2023-03-26T22:37:38.403Z,97025.69
2023-03-26T22:40:13.833Z,97031.72
2023-03-26T22:42:42.050Z,97024.97
2023-03-26T22:45:10.389Z,97011.56
2023-03-26T22:47:38.716Z,97009.06
2023-03-26T22:50:07.609Z,97010.81
2023-03-26T22:52:36.835Z,97011.47
2023-03-26T22:55:05.499Z,97006.78
2023-03-26T22:57:33.942Z,97005.97
2023-03-26T23:00:13.043Z,97005.41
2023-03-26T23:02:41.974Z,97009.41
2023-03-26T23:05:11.079Z,97009.84
2023-03-26T23:07:38.814Z,97014.28
2023-03-26T23:10:06.490Z,97010.09
2023-03-26T23:12:34.552Z,97015.69
2023-03-26T23:15:05.319Z,97006.47
2023-03-26T23:17:35.428Z,97002.66
2023-03-26T23:20:07.263Z,97005.13
2023-03-26T23:22:35.457Z,96992.91
2023-03-26T23:25:03.479Z,96993.44
2023-03-26T23:27:31.293Z,96993.06
2023-03-26T23:29:58.818Z,96995.34
2023-03-26T23:32:26.395Z,96997.69
2023-03-26T23:34:56.415Z,96999.41
2023-03-26T23:37:23.876Z,96994.31
2023-03-26T23:39:51.608Z,96992.47
2023-03-26T23:42:28.697Z,96989.78
2023-03-26T23:44:57.467Z,96987.06
2023-03-26T23:47:25.556Z,96985.59
2023-03-26T23:49:52.862Z,96988.91
2023-03-26T23:52:20.322Z,96990.81
2023-03-26T23:54:47.597Z,96991.63
2023-03-26T23:57:15.858Z,96986.41
2023-03-26T23:59:43.750Z,96987.75
